createdAt,value
2023-04-06T00:02:19.303Z,44.22
2023-04-06T00:04:48.677Z,44.06
2023-04-06T00:07:16.758Z,44.17
2023-04-06T00:09:44.816Z,44.27
2023-04-06T00:12:12.790Z,44.00
2023-04-06T00:14:41.515Z,44.63
2023-04-06T00:17:10.271Z,44.64
2023-04-06T00:19:38.438Z,44.41
2023-04-06T00:22:07.907Z,44.51
2023-04-06T00:24:36.047Z,44.82
2023-04-06T00:27:04.134Z,44.96
2023-04-06T00:29:32.221Z,45.15
2023-04-06T00:32:00.417Z,45.34
2023-04-06T00:34:28.662Z,45.37
2023-04-06T00:36:56.743Z,45.38
2023-04-06T00:39:26.304Z,45.44
2023-04-06T00:41:56.198Z,44.97
2023-04-06T00:44:24.626Z,45.46
2023-04-06T00:46:52.676Z,45.13
2023-04-06T00:49:21.255Z,45.69
2023-04-06T00:51:49.238Z,45.98
2023-04-06T00:54:17.354Z,46.38
2023-04-06T00:56:47.250Z,46.64
2023-04-06T00:59:15.600Z,46.74
2023-04-06T01:01:43.815Z,46.65
2023-04-06T01:04:27.429Z,46.87
2023-04-06T01:06:56.380Z,47.00
2023-04-06T01:09:30.752Z,47.03
2023-04-06T01:12:03.182Z,46.68
2023-04-06T01:14:32.951Z,46.65
2023-04-06T01:17:02.513Z,46.48
2023-04-06T01:19:33.317Z,46.64
2023-04-06T01:22:02.176Z,46.20
2023-04-06T01:24:34.145Z,46.02
2023-04-06T01:27:02.737Z,46.10
2023-04-06T01:29:42.510Z,46.09
2023-04-06T01:32:18.617Z,45.80
2023-04-06T01:34:51.710Z,46.04
2023-04-06T01:37:20.401Z,45.83
2023-04-06T01:39:50.533Z,45.99
2023-04-06T01:42:27.666Z,46.22
2023-04-06T01:44:55.723Z,46.61
2023-04-06T01:47:24.021Z,46.63
2023-04-06T01:49:52.530Z,46.61
2023-04-06T01:52:21.881Z,46.34
2023-04-06T01:54:55.380Z,46.48
2023-04-06T01:57:38.478Z,46.91
2023-04-06T02:00:16.123Z,47.03
2023-04-06T02:02:50.586Z,47.21
2023-04-06T02:05:24.459Z,46.90
2023-04-06T02:07:54.212Z,46.78
2023-04-06T02:10:32.397Z,46.68
2023-04-06T02:13:04.309Z,46.96
2023-04-06T02:15:33.041Z,47.29
2023-04-06T02:18:01.663Z,47.57
2023-04-06T02:20:29.794Z,47.19
2023-04-06T02:22:59.122Z,47.05
2023-04-06T02:25:27.494Z,47.44
2023-04-06T02:27:57.005Z,47.12
2023-04-06T02:30:25.084Z,47.66
2023-04-06T02:32:53.084Z,47.86
2023-04-06T02:35:21.458Z,47.84
2023-04-06T02:37:54.894Z,47.25
2023-04-06T02:40:23.046Z,47.40
2023-04-06T02:42:51.526Z,47.47
2023-04-06T02:45:28.942Z,47.35
2023-04-06T02:47:57.668Z,47.58
2023-04-06T02:50:27.396Z,47.64
2023-04-06T02:53:02.324Z,47.28
2023-04-06T02:55:30.647Z,47.33
2023-04-06T02:57:58.670Z,47.36
2023-04-06T03:00:33.468Z,47.55
2023-04-06T03:03:01.741Z,48.09
2023-04-06T03:05:29.974Z,48.20
2023-04-06T03:07:58.078Z,48.35
2023-04-06T03:10:36.559Z,48.88
2023-04-06T03:13:04.625Z,49.31
2023-04-06T03:15:55.091Z,49.60
2023-04-06T03:18:25.414Z,49.82
2023-04-06T03:20:55.957Z,49.68
2023-04-06T03:23:28.508Z,49.69
2023-04-06T03:26:00.697Z,49.67
2023-04-06T03:28:28.770Z,49.35
2023-04-06T03:31:01.415Z,49.29
2023-04-06T03:33:48.183Z,49.44
2023-04-06T03:36:23.078Z,49.28
2023-04-06T03:38:51.052Z,49.18
2023-04-06T03:41:19.051Z,49.41
2023-04-06T03:43:55.289Z,49.17
2023-04-06T03:46:24.822Z,49.43
2023-04-06T03:48:55.626Z,49.30
2023-04-06T03:51:26.228Z,49.31
2023-04-06T03:53:54.309Z,49.37
2023-04-06T03:56:22.417Z,49.39
2023-04-06T03:58:51.771Z,49.39
2023-04-06T04:01:22.267Z,49.29
2023-04-06T04:03:52.473Z,49.20
2023-04-06T04:06:20.579Z,49.34
2023-04-06T04:08:48.605Z,49.56
2023-04-06T04:11:17.595Z,49.65
2023-04-06T04:13:48.993Z,49.70
2023-04-06T04:16:17.215Z,49.55
2023-04-06T04:18:46.438Z,49.73
2023-04-06T04:21:15.850Z,49.55
2023-04-06T04:23:43.848Z,49.65
2023-04-06T04:26:12.165Z,50.01
2023-04-06T04:28:41.330Z,49.82
2023-04-06T04:31:09.778Z,49.86
2023-04-06T04:33:38.001Z,49.88
2023-04-06T04:36:11.942Z,49.88
2023-04-06T04:38:45.332Z,49.97
2023-04-06T04:41:13.366Z,50.10
2023-04-06T04:43:44.385Z,49.92
2023-04-06T04:46:13.926Z,49.95
2023-04-06T04:48:44.399Z,49.99
2023-04-06T04:51:12.513Z,49.65
2023-04-06T04:54:00.320Z,49.34
2023-04-06T04:56:32.342Z,49.65
2023-04-06T04:59:20.391Z,49.77
2023-04-06T05:01:56.530Z,49.76
2023-04-06T05:04:32.218Z,49.92
2023-04-06T05:07:08.194Z,49.73
2023-04-06T05:09:39.351Z,49.72
2023-04-06T05:12:08.953Z,50.08
2023-04-06T05:14:45.591Z,49.58
2023-04-06T05:17:16.926Z,49.53
2023-04-06T05:19:45.656Z,49.64
2023-04-06T05:22:18.638Z,49.48
2023-04-06T05:24:52.776Z,48.92
2023-04-06T05:27:21.507Z,49.10
2023-04-06T05:29:51.148Z,49.16
2023-04-06T05:32:22.958Z,48.74
2023-04-06T05:34:52.397Z,48.26
2023-04-06T05:37:20.528Z,48.09
2023-04-06T05:39:48.843Z,47.97
2023-04-06T05:42:18.820Z,48.23
2023-04-06T05:44:53.092Z,47.86
2023-04-06T05:47:22.133Z,47.89
2023-04-06T05:49:55.846Z,47.46
2023-04-06T05:52:34.196Z,47.70
2023-04-06T05:55:02.470Z,47.11
2023-04-06T05:57:33.640Z,46.59
2023-04-06T06:00:01.972Z,46.92
2023-04-06T06:02:41.130Z,46.58
2023-04-06T06:05:12.925Z,46.28
2023-04-06T06:07:43.278Z,46.14
2023-04-06T06:10:13.043Z,46.43
2023-04-06T06:12:43.025Z,46.05
2023-04-06T06:15:12.593Z,45.50
2023-04-06T06:17:45.422Z,45.52
2023-04-06T06:20:14.269Z,45.03
2023-04-06T06:22:44.975Z,45.01
2023-04-06T06:25:18.537Z,45.31
2023-04-06T06:27:50.041Z,45.65
2023-04-06T06:30:22.884Z,44.88
2023-04-06T06:32:52.172Z,44.47
2023-04-06T06:35:20.944Z,44.48
2023-04-06T06:37:49.944Z,45.01
2023-04-06T06:40:24.932Z,44.51
2023-04-06T06:42:55.902Z,44.88
2023-04-06T06:45:30.492Z,45.14
2023-04-06T06:47:58.885Z,44.82
2023-04-06T06:50:27.239Z,44.86
2023-04-06T06:52:55.698Z,44.98
2023-04-06T06:55:23.826Z,44.71
2023-04-06T06:57:51.893Z,44.48
2023-04-06T07:00:22.482Z,44.85
2023-04-06T07:02:51.728Z,44.15
2023-04-06T07:05:28.351Z,44.37
2023-04-06T07:07:59.111Z,44.51
2023-04-06T07:10:28.068Z,44.18
2023-04-06T07:12:56.433Z,44.07
2023-04-06T07:15:26.040Z,44.35
2023-04-06T07:17:55.524Z,43.77
2023-04-06T07:20:24.359Z,44.63
2023-04-06T07:22:52.408Z,43.90
2023-04-06T07:25:20.929Z,44.01
2023-04-06T07:27:49.944Z,44.07
2023-04-06T07:30:19.826Z,43.68
2023-04-06T07:32:49.388Z,43.88
2023-04-06T07:35:17.807Z,43.94
2023-04-06T07:37:45.963Z,43.75
2023-04-06T07:40:14.774Z,43.50
2023-04-06T07:42:43.581Z,43.53
2023-04-06T07:45:13.004Z,43.17
2023-04-06T07:47:41.362Z,43.17
2023-04-06T07:50:12.080Z,42.99
2023-04-06T07:52:41.153Z,42.90
2023-04-06T07:55:10.738Z,42.56
2023-04-06T07:57:38.844Z,42.71
2023-04-06T08:00:10.349Z,42.80
2023-04-06T08:02:41.317Z,42.40
2023-04-06T08:05:11.607Z,42.19
2023-04-06T08:07:39.735Z,42.89
2023-04-06T08:10:08.261Z,42.35
2023-04-06T08:12:37.081Z,42.13
2023-04-06T08:15:05.824Z,42.11
2023-04-06T08:17:34.942Z,41.85
2023-04-06T08:20:04.380Z,41.93
2023-04-06T08:22:33.966Z,42.12
2023-04-06T08:25:01.878Z,42.05
2023-04-06T08:27:29.979Z,41.87
2023-04-06T08:29:58.016Z,41.97
2023-04-06T08:32:27.221Z,41.52
2023-04-06T08:34:56.625Z,41.51
2023-04-06T08:37:24.924Z,41.64
2023-04-06T08:39:54.409Z,41.30
2023-04-06T08:42:23.754Z,41.77
2023-04-06T08:44:53.490Z,41.97
2023-04-06T08:47:24.537Z,42.46
2023-04-06T08:49:53.265Z,41.39
2023-04-06T08:52:21.804Z,40.46
2023-04-06T08:54:49.827Z,41.24
2023-04-06T08:57:20.751Z,41.30
2023-04-06T08:59:49.362Z,39.58
2023-04-06T09:02:20.247Z,39.42
2023-04-06T09:04:50.413Z,38.45
2023-04-06T09:07:18.568Z,38.58
2023-04-06T09:09:49.589Z,38.88
2023-04-06T09:12:29.580Z,40.12
2023-04-06T09:14:58.598Z,37.74
2023-04-06T09:17:29.323Z,37.30
2023-04-06T09:19:57.806Z,37.58
2023-04-06T09:22:28.035Z,37.72
2023-04-06T09:24:56.374Z,37.67
2023-04-06T09:27:34.936Z,37.19
2023-04-06T09:30:08.189Z,36.60
2023-04-06T09:32:47.831Z,36.99
2023-04-06T09:35:16.698Z,36.59
2023-04-06T09:37:45.277Z,37.35
2023-04-06T09:40:14.669Z,36.84
2023-04-06T09:42:44.277Z,37.23
2023-04-06T09:45:12.810Z,36.91
2023-04-06T09:47:42.838Z,36.46
2023-04-06T09:50:13.279Z,36.57
2023-04-06T09:52:44.648Z,36.84
2023-04-06T09:55:13.416Z,36.73
2023-04-06T09:57:51.570Z,36.04
2023-04-06T10:00:24.391Z,36.04
2023-04-06T10:02:58.794Z,36.36
2023-04-06T10:05:35.688Z,35.39
2023-04-06T10:08:08.195Z,35.73
2023-04-06T10:10:36.583Z,36.29
2023-04-06T10:13:06.593Z,35.47
2023-04-06T10:15:35.591Z,35.24
2023-04-06T10:18:05.761Z,35.58
2023-04-06T10:20:41.057Z,34.88
2023-04-06T10:23:16.872Z,34.96
2023-04-06T10:25:55.600Z,35.38
2023-04-06T10:28:25.893Z,34.59
2023-04-06T10:31:00.339Z,34.74
2023-04-06T10:33:28.883Z,35.26
2023-04-06T10:35:57.268Z,34.42
2023-04-06T10:38:38.347Z,34.45
2023-04-06T10:41:09.686Z,34.51
2023-04-06T10:43:41.437Z,34.99
2023-04-06T10:46:10.969Z,34.20
2023-04-06T10:48:41.017Z,34.10
2023-04-06T10:51:13.538Z,34.94
2023-04-06T10:53:43.930Z,33.87
2023-04-06T10:56:13.216Z,34.83
2023-04-06T10:58:47.634Z,34.44
2023-04-06T11:01:17.592Z,33.87
2023-04-06T11:03:47.095Z,33.66
2023-04-06T11:06:20.682Z,33.85
2023-04-06T11:08:48.988Z,34.10
2023-04-06T11:11:19.417Z,33.63
2023-04-06T11:13:51.620Z,33.77
2023-04-06T11:16:21.566Z,33.10
2023-04-06T11:18:54.464Z,33.04
2023-04-06T11:21:33.112Z,33.54
2023-04-06T11:24:12.698Z,33.33
2023-04-06T11:26:46.074Z,33.39
2023-04-06T11:29:17.406Z,32.01
2023-04-06T11:31:48.414Z,32.28
2023-04-06T11:34:19.310Z,31.98
2023-04-06T11:36:48.975Z,33.38
2023-04-06T11:39:21.919Z,33.00
2023-04-06T11:41:50.681Z,33.32
2023-04-06T11:44:32.063Z,33.40
2023-04-06T11:47:00.436Z,33.16
2023-04-06T11:49:29.616Z,33.03
2023-04-06T11:51:57.993Z,32.19
2023-04-06T11:54:33.543Z,31.78
2023-04-06T11:57:02.225Z,32.50
2023-04-06T11:59:31.834Z,31.27
2023-04-06T12:02:00.051Z,31.78
2023-04-06T12:04:28.055Z,31.87
2023-04-06T12:06:56.175Z,31.96
2023-04-06T12:09:24.312Z,32.22
2023-04-06T12:11:52.419Z,32.59
2023-04-06T12:14:20.432Z,33.08
2023-04-06T12:16:50.013Z,33.74
2023-04-06T12:19:18.045Z,33.82
2023-04-06T12:21:45.996Z,34.16
2023-04-06T12:24:14.001Z,33.79
2023-04-06T12:26:42.454Z,33.80
2023-04-06T12:29:10.512Z,33.43
2023-04-06T12:31:39.922Z,34.10
2023-04-06T12:34:09.549Z,32.74
2023-04-06T12:36:39.246Z,32.06
2023-04-06T12:39:07.619Z,31.33
2023-04-06T12:41:35.785Z,31.45
2023-04-06T12:44:04.043Z,32.00
2023-04-06T12:46:32.767Z,32.61
2023-04-06T12:49:02.109Z,32.04
2023-04-06T12:51:32.338Z,32.74
2023-04-06T12:54:00.360Z,32.70
2023-04-06T12:56:28.806Z,32.56
2023-04-06T12:58:57.461Z,33.66
2023-04-06T13:01:26.336Z,33.66
2023-04-06T13:03:54.600Z,34.75
2023-04-06T13:06:22.704Z,35.01
2023-04-06T13:08:52.065Z,35.14
2023-04-06T13:11:21.648Z,36.10
2023-04-06T13:13:49.717Z,35.14
2023-04-06T13:16:17.925Z,35.78
2023-04-06T13:18:46.333Z,36.29
2023-04-06T13:21:16.963Z,35.61
2023-04-06T13:23:45.428Z,36.09
2023-04-06T13:26:17.336Z,36.03
2023-04-06T13:28:45.546Z,36.48
2023-04-06T13:31:13.570Z,36.85
2023-04-06T13:33:41.824Z,36.09
2023-04-06T13:36:10.205Z,36.47
2023-04-06T13:38:39.963Z,36.92
2023-04-06T13:41:08.170Z,36.86
2023-04-06T13:43:37.592Z,36.38
2023-04-06T13:46:06.095Z,37.27
2023-04-06T13:48:34.217Z,37.10
2023-04-06T13:51:10.681Z,37.69
2023-04-06T13:53:40.321Z,37.10
2023-04-06T13:56:10.452Z,37.28
2023-04-06T13:58:39.718Z,37.59
2023-04-06T14:01:10.775Z,38.30
2023-04-06T14:03:40.410Z,38.25
2023-04-06T14:06:20.953Z,38.15
2023-04-06T14:08:58.416Z,38.34
2023-04-06T14:11:27.340Z,38.48
2023-04-06T14:13:58.224Z,38.55
2023-04-06T14:16:27.444Z,39.41
2023-04-06T14:18:56.024Z,39.20
2023-04-06T14:21:23.959Z,39.63
2023-04-06T14:23:51.815Z,39.78
2023-04-06T14:26:20.547Z,41.12
2023-04-06T14:28:48.361Z,40.72
2023-04-06T14:31:18.130Z,42.20
2023-04-06T14:33:47.400Z,42.12
2023-04-06T14:36:15.608Z,43.18
2023-04-06T14:38:45.000Z,43.47
2023-04-06T14:41:18.005Z,44.73
2023-04-06T14:43:46.199Z,45.35
2023-04-06T14:46:14.366Z,45.99
2023-04-06T14:48:43.634Z,46.63
2023-04-06T14:51:11.643Z,47.13
2023-04-06T14:53:39.762Z,47.86
2023-04-06T14:56:08.269Z,49.25
2023-04-06T14:58:36.116Z,49.30
2023-04-06T15:01:04.442Z,50.01
2023-04-06T15:03:32.656Z,49.97
2023-04-06T15:06:02.005Z,50.74
2023-04-06T15:08:29.938Z,50.85
2023-04-06T15:11:01.484Z,50.86
2023-04-06T15:13:30.571Z,51.38
2023-04-06T15:15:59.883Z,51.85
2023-04-06T15:18:29.593Z,51.99
2023-04-06T15:20:57.773Z,52.48
2023-04-06T15:23:30.481Z,53.40
2023-04-06T15:25:58.539Z,53.89
2023-04-06T15:28:26.481Z,54.75
2023-04-06T15:30:56.153Z,54.85
2023-04-06T15:33:24.085Z,55.40
2023-04-06T15:35:52.098Z,54.66
2023-04-06T15:38:20.046Z,54.63
2023-04-06T15:40:50.730Z,54.46
2023-04-06T15:43:18.719Z,53.99
2023-04-06T15:45:47.161Z,54.04
2023-04-06T15:48:15.478Z,53.94
2023-04-06T15:50:43.665Z,54.32
2023-04-06T15:53:12.641Z,54.24
2023-04-06T15:55:40.695Z,54.61
2023-04-06T15:58:09.974Z,55.25
2023-04-06T16:00:37.840Z,55.12
2023-04-06T16:03:06.115Z,55.54
2023-04-06T16:05:35.010Z,55.99
2023-04-06T16:08:12.772Z,55.37
2023-04-06T16:10:40.892Z,55.46
2023-04-06T16:13:10.435Z,55.80
2023-04-06T16:15:38.612Z,56.06
2023-04-06T16:18:06.668Z,56.82
2023-04-06T16:20:36.422Z,57.49
2023-04-06T16:23:04.398Z,57.77
2023-04-06T16:25:32.209Z,58.34
2023-04-06T16:28:01.146Z,58.87
2023-04-06T16:30:31.286Z,59.81
2023-04-06T16:32:59.416Z,60.58
2023-04-06T16:35:27.330Z,60.98
2023-04-06T16:37:55.291Z,61.20
2023-04-06T16:40:23.118Z,61.22
2023-04-06T16:42:51.044Z,61.86
2023-04-06T16:45:19.274Z,62.14
2023-04-06T16:47:50.280Z,62.75
2023-04-06T16:50:18.542Z,62.67
2023-04-06T16:52:46.439Z,63.10
2023-04-06T16:55:14.924Z,63.10
2023-04-06T16:57:42.898Z,63.23
2023-04-06T17:00:11.699Z,62.93
2023-04-06T17:02:39.821Z,63.13
2023-04-06T17:05:10.114Z,63.44
2023-04-06T17:07:37.982Z,64.00
2023-04-06T17:10:07.198Z,64.30
2023-04-06T17:12:35.115Z,64.56
2023-04-06T17:15:03.159Z,65.09
2023-04-06T17:17:31.083Z,65.15
2023-04-06T17:19:58.962Z,65.16
2023-04-06T17:22:28.258Z,65.52
2023-04-06T17:24:56.177Z,65.62
2023-04-06T17:27:26.528Z,65.92
2023-04-06T17:29:54.407Z,66.39
2023-04-06T17:32:22.709Z,67.10
2023-04-06T17:34:50.816Z,67.70
2023-04-06T17:37:18.806Z,68.08
2023-04-06T17:39:47.997Z,68.75
2023-04-06T17:42:16.364Z,68.96
2023-04-06T17:44:44.279Z,69.07
2023-04-06T17:47:12.115Z,69.21
2023-04-06T17:49:40.004Z,69.49
2023-04-06T17:52:07.938Z,69.32
2023-04-06T17:54:36.707Z,69.39
2023-04-06T17:57:07.640Z,69.71
2023-04-06T17:59:35.641Z,69.47
2023-04-06T18:02:04.389Z,69.69
2023-04-06T18:04:32.617Z,69.50
2023-04-06T18:07:00.673Z,69.44
2023-04-06T18:09:28.599Z,69.54
2023-04-06T18:11:57.174Z,69.55
2023-04-06T18:14:26.509Z,69.66
2023-04-06T18:16:54.397Z,69.79
2023-04-06T18:19:22.368Z,69.69
2023-04-06T18:21:50.455Z,69.92
2023-04-06T18:24:27.183Z,70.13
2023-04-06T18:27:06.181Z,70.16
2023-04-06T18:29:36.802Z,69.59
2023-04-06T18:32:05.561Z,69.67
2023-04-06T18:34:33.445Z,70.01
2023-04-06T18:37:01.743Z,69.98
2023-04-06T18:39:30.061Z,69.84
2023-04-06T18:41:58.549Z,69.90
2023-04-06T18:44:26.602Z,69.60
2023-04-06T18:46:56.104Z,69.58
2023-04-06T18:49:24.108Z,69.40
2023-04-06T18:51:53.554Z,69.18
2023-04-06T18:54:21.670Z,69.03
2023-04-06T18:56:49.711Z,69.24
2023-04-06T18:59:19.213Z,69.17
2023-04-06T19:01:51.080Z,69.41
2023-04-06T19:04:21.494Z,68.96
2023-04-06T19:06:49.566Z,69.00
2023-04-06T19:09:17.638Z,68.92
2023-04-06T19:11:45.749Z,69.04
2023-04-06T19:14:13.756Z,68.95
2023-04-06T19:16:51.712Z,68.68
2023-04-06T19:19:24.212Z,68.74
2023-04-06T19:21:52.247Z,68.38
2023-04-06T19:24:20.131Z,68.57
2023-04-06T19:26:48.364Z,68.30
2023-04-06T19:29:16.476Z,69.07
2023-04-06T19:31:44.380Z,68.57
2023-04-06T19:34:17.398Z,68.28
2023-04-06T19:36:46.906Z,68.32
2023-04-06T19:39:17.356Z,68.57
2023-04-06T19:41:45.380Z,68.40
2023-04-06T19:44:13.325Z,68.48
2023-04-06T19:46:42.473Z,68.22
2023-04-06T19:49:10.579Z,68.26
2023-04-06T19:51:38.649Z,68.02
2023-04-06T19:54:08.478Z,68.46
2023-04-06T19:56:36.442Z,68.40
2023-04-06T19:59:04.466Z,68.12
2023-04-06T20:01:32.584Z,67.81
2023-04-06T20:04:00.697Z,68.05
2023-04-06T20:06:30.919Z,68.15
2023-04-06T20:08:58.851Z,68.00
2023-04-06T20:11:28.273Z,67.99
2023-04-06T20:13:56.237Z,66.93
2023-04-06T20:16:24.872Z,67.48
2023-04-06T20:18:52.810Z,67.45
2023-04-06T20:21:20.825Z,66.93
2023-04-06T20:23:48.745Z,66.82
2023-04-06T20:26:16.732Z,66.73
2023-04-06T20:28:46.038Z,66.43
2023-04-06T20:31:13.920Z,66.31
2023-04-06T20:33:42.057Z,66.13
2023-04-06T20:36:11.164Z,66.18
2023-04-06T20:38:40.435Z,65.76
2023-04-06T20:41:08.944Z,65.66
2023-04-06T20:43:37.184Z,65.92
2023-04-06T20:46:07.417Z,65.87
2023-04-06T20:48:38.042Z,65.39
2023-04-06T20:51:06.472Z,65.88
2023-04-06T20:53:34.409Z,65.91
2023-04-06T20:56:02.438Z,66.19
2023-04-06T20:58:30.476Z,65.86
2023-04-06T21:00:58.444Z,65.79
2023-04-06T21:03:27.903Z,65.51
2023-04-06T21:05:58.294Z,65.73
2023-04-06T21:08:26.129Z,65.98
2023-04-06T21:10:54.035Z,66.30
2023-04-06T21:13:21.908Z,66.50
2023-04-06T21:15:51.595Z,66.25
2023-04-06T21:18:19.692Z,66.68
2023-04-06T21:20:49.121Z,66.28
2023-04-06T21:23:17.309Z,67.12
2023-04-06T21:25:45.296Z,67.13
2023-04-06T21:28:13.201Z,66.92
2023-04-06T21:30:41.854Z,67.13
2023-04-06T21:33:11.259Z,67.35
2023-04-06T21:35:39.691Z,67.23
2023-04-06T21:38:09.549Z,68.00
2023-04-06T21:40:38.805Z,67.94
2023-04-06T21:43:06.808Z,67.24
2023-04-06T21:45:34.786Z,67.53
2023-04-06T21:48:02.974Z,67.46
2023-04-06T21:50:30.871Z,67.77
2023-04-06T21:52:58.743Z,67.90
2023-04-06T21:55:28.051Z,68.17
2023-04-06T21:57:55.858Z,68.43
2023-04-06T22:00:25.065Z,68.72
2023-04-06T22:02:53.183Z,69.19
2023-04-06T22:05:21.317Z,69.52
2023-04-06T22:07:49.295Z,69.95
2023-04-06T22:10:17.223Z,70.32
2023-04-06T22:12:46.461Z,70.94
2023-04-06T22:15:14.614Z,71.44
2023-04-06T22:17:42.610Z,70.92
2023-04-06T22:20:11.196Z,71.08
2023-04-06T22:22:39.290Z,71.38
2023-04-06T22:25:08.299Z,70.93
2023-04-06T22:27:36.197Z,71.23
2023-04-06T22:30:06.589Z,70.71
2023-04-06T22:32:34.636Z,70.82
2023-04-06T22:35:02.783Z,70.27
2023-04-06T22:37:30.830Z,69.97
2023-04-06T22:39:58.629Z,69.97
2023-04-06T22:42:26.672Z,69.57
2023-04-06T22:44:54.547Z,69.35
2023-04-06T22:47:23.902Z,69.01
2023-04-06T22:49:51.824Z,68.36
2023-04-06T22:52:19.777Z,68.18
2023-04-06T22:54:47.733Z,67.89
2023-04-06T22:57:16.063Z,67.82
2023-04-06T22:59:43.903Z,67.73
2023-04-06T23:02:11.924Z,67.25
2023-04-06T23:04:41.109Z,67.07
2023-04-06T23:07:08.973Z,66.48
2023-04-06T23:09:36.824Z,67.12
2023-04-06T23:12:05.028Z,66.69
2023-04-06T23:14:33.071Z,67.03
2023-04-06T23:17:01.057Z,66.67
2023-04-06T23:19:28.933Z,66.58
2023-04-06T23:21:58.501Z,66.73
2023-04-06T23:24:27.488Z,66.98
2023-04-06T23:26:56.438Z,67.53
2023-04-06T23:29:24.456Z,68.06
2023-04-06T23:31:52.403Z,67.89
2023-04-06T23:34:20.280Z,68.36
2023-04-06T23:36:48.265Z,68.18
2023-04-06T23:39:17.480Z,68.45
2023-04-06T23:41:45.385Z,68.80
2023-04-06T23:44:13.310Z,68.71
2023-04-06T23:46:41.213Z,68.28
2023-04-06T23:49:09.162Z,68.58
2023-04-06T23:51:36.973Z,68.30
2023-04-06T23:54:05.162Z,69.35
2023-04-06T23:56:34.413Z,68.92
2023-04-06T23:59:02.345Z,68.91
